Time;durP1;ratioP1;P1;durP2;ratioP2;P2;SDS_P1;SDS_P2;PMS_P1;PMS_P2;Temp;Humidity;BMP_temperature;BMP_pressure;BME280_temperature;BME280_humidity;BME280_pressure;Samples;Min_cycle;Max_cycle;Signal;HPM_P1;HPM_P2
2022/05/06 02:43:22;;;;;;;18.50;13.45;;;;;;;13.69;74.17;99590.82;1800375;79;22489;-35
2022/05/06 02:45:48;;;;;;;21.50;13.25;;;;;;;13.58;75.32;99598.11;1761703;80;21035;-40
2022/05/06 02:48:14;;;;;;;24.90;13.30;;;;;;;13.52;75.79;99598.50;1761856;81;20968;-38
2022/05/06 02:50:41;;;;;;;19.32;13.35;;;;;;;13.55;74.55;99594.33;1761752;81;21034;-38
2022/05/06 02:53:07;;;;;;;17.20;13.18;;;;;;;13.60;73.80;99599.69;1761955;81;20995;-41
2022/05/06 02:55:33;;;;;;;18.12;12.98;;;;;;;13.66;74.11;99597.61;1761825;80;21496;-38
2022/05/06 02:57:59;;;;;;;20.57;13.40;;;;;;;13.77;73.26;99601.29;1761791;81;21870;-38
2022/05/06 03:00:26;;;;;;;19.35;13.83;;;;;;;13.65;74.95;99603.86;1761728;80;20991;-36
2022/05/06 03:02:52;;;;;;;19.98;13.10;;;;;;;13.58;74.81;99598.11;1761843;81;21031;-40
2022/05/06 03:05:18;;;;;;;20.77;13.43;;;;;;;13.66;74.30;99601.58;1761766;80;21030;-39
2022/05/06 03:07:43;;;;;;;18.90;14.47;;;;;;;13.49;76.58;99602.64;1761760;81;20986;-36
2022/05/06 03:10:10;;;;;;;20.02;15.58;;;;;;;13.39;77.28;99603.70;1761783;81;21483;-35
2022/05/06 03:12:37;;;;;;;19.30;14.40;;;;;;;13.38;76.76;99609.44;1761867;81;20984;-38
2022/05/06 03:15:05;;;;;;;19.12;14.90;;;;;;;13.21;80.03;99613.57;1761840;80;20991;-37
2022/05/06 03:17:33;;;;;;;20.20;15.30;;;;;;;13.31;77.76;99616.52;1761711;81;21030;-38
2022/05/06 03:20:00;;;;;;;19.55;15.00;;;;;;;13.21;77.98;99613.09;1761064;80;20964;-37
2022/05/06 03:22:27;;;;;;;30.17;16.25;;;;;;;13.21;77.70;99618.38;1761921;80;20995;-37
2022/05/06 03:24:53;;;;;;;22.43;15.70;;;;;;;13.05;80.69;99618.92;1761985;81;20988;-35
2022/05/06 03:30:06;;;;;;;21.73;16.00;;;;;;;13.10;79.66;99623.91;1761706;80;21516;-36
2022/05/06 03:32:33;;;;;;;19.17;15.60;;;;;;;13.01;80.78;99623.53;1761894;80;21452;-37
2022/05/06 03:34:59;;;;;;;25.40;18.67;;;;;;;13.06;79.36;99628.08;1761986;81;21051;-37
2022/05/06 03:37:26;;;;;;;25.57;17.60;;;;;;;13.10;79.96;99625.23;1761725;81;20959;-37
2022/05/06 03:39:52;;;;;;;25.77;18.30;;;;;;;13.04;81.66;99635.24;1761807;80;20998;-37
2022/05/06 03:42:17;;;;;;;27.37;19.77;;;;;;;13.01;80.69;99630.62;1755535;81;21064;-35
2022/05/06 03:44:43;;;;;;;27.73;20.37;;;;;;;12.92;83.21;99626.73;1748737;81;20980;-40
2022/05/06 03:47:09;;;;;;;29.45;20.95;;;;;;;12.89;83.55;99629.55;1748627;81;21517;-38
2022/05/06 03:49:35;;;;;;;32.65;21.85;;;;;;;12.89;83.36;99631.34;1748593;81;20992;-35
2022/05/06 03:52:01;;;;;;;32.85;23.62;;;;;;;12.94;82.79;99637.20;1748794;81;20968;-37
2022/05/06 03:54:27;;;;;;;36.03;23.35;;;;;;;12.88;83.82;99637.09;1748074;82;21000;-38
2022/05/06 03:56:53;;;;;;;35.38;23.25;;;;;;;12.91;83.04;99636.05;1748068;82;21043;-40
2022/05/06 03:59:19;;;;;;;38.83;24.72;;;;;;;12.94;81.76;99638.05;1748166;81;20968;-39
2022/05/06 04:01:45;;;;;;;33.65;25.27;;;;;;;12.93;82.40;99640.29;1748172;81;20987;-36
2022/05/06 04:04:11;;;;;;;37.65;23.05;;;;;;;12.87;84.59;99644.63;1748170;81;21445;-35
2022/05/06 04:06:36;;;;;;;34.83;24.12;;;;;;;12.89;82.56;99649.34;1748089;81;21457;-35
2022/05/06 04:09:03;;;;;;;36.13;25.77;;;;;;;12.96;82.65;99659.08;1748137;81;21020;-38
2022/05/06 04:11:28;;;;;;;34.55;23.80;;;;;;;12.86;84.40;99651.70;1748105;81;21022;-39
2022/05/06 04:13:54;;;;;;;35.10;25.48;;;;;;;12.85;84.82;99651.79;1748010;82;21024;-36
2022/05/06 04:16:22;;;;;;;32.50;24.85;;;;;;;12.90;83.26;99655.02;1748154;82;21457;-39
2022/05/06 04:18:47;;;;;;;;;;;;;;;12.89;84.28;99669.13;1750759;81;21026;-38
2022/05/06 04:23:57;;;;;;;34.03;23.75;;;;;;;12.95;83.99;99678.48;1748054;81;21429;-37
2022/05/06 04:26:25;;;;;;;30.30;23.15;;;;;;;12.93;84.57;99675.92;1748124;81;21132;-37
2022/05/06 04:28:50;;;;;;;;;;;;;;;12.90;84.87;99673.94;1750650;81;20979;-36
2022/05/06 04:31:17;;;;;;;39.75;26.05;;;;;;;12.84;85.28;99679.98;1748139;82;20497;-39
2022/05/06 04:33:43;;;;;;;32.93;24.20;;;;;;;12.86;84.39;99683.38;1748279;81;20983;-38
2022/05/06 04:36:09;;;;;;;36.98;25.80;;;;;;;12.82;85.22;99687.14;1748097;81;21038;-36
2022/05/06 04:38:35;;;;;;;33.80;25.55;;;;;;;12.81;84.90;99688.55;1748404;81;20960;-37
2022/05/06 04:41:02;;;;;;;42.45;26.87;;;;;;;12.83;84.38;99691.47;1748038;81;20984;-38
2022/05/06 04:43:29;;;;;;;37.80;25.00;;;;;;;12.81;85.17;99695.98;1759083;80;21022;-38
2022/05/06 04:45:55;;;;;;;32.83;24.65;;;;;;;12.88;84.64;99691.21;1761502;81;21049;-40
2022/05/06 04:48:21;;;;;;;36.93;26.52;;;;;;;12.88;84.41;99692.53;1761740;81;21536;-36
2022/05/06 04:50:48;;;;;;;34.60;25.72;;;;;;;12.84;85.55;99700.22;1761451;80;21092;-41
2022/05/06 04:53:15;;;;;;;30.12;22.73;;;;;;;12.93;84.55;99702.80;1761419;81;20990;-37
2022/05/06 04:55:46;;;;;;;38.40;27.35;;;;;;;12.96;84.74;99700.83;1761522;81;21022;-40
2022/05/06 04:58:12;;;;;;;39.45;26.68;;;;;;;12.98;84.42;99699.42;1761502;81;20975;-38
2022/05/06 05:00:38;;;;;;;42.45;28.38;;;;;;;12.99;84.25;99703.30;1761415;81;20999;-39
2022/05/06 05:03:04;;;;;;;43.83;28.05;;;;;;;13.09;83.47;99707.56;1761428;81;21523;-36
2022/05/06 05:05:30;;;;;;;39.90;27.10;;;;;;;13.04;83.61;99710.48;1761302;81;20990;-39
2022/05/06 05:07:56;;;;;;;36.03;24.85;;;;;;;13.08;83.99;99710.28;1761390;81;21003;-39
2022/05/06 05:10:23;;;;;;;42.33;26.95;;;;;;;13.09;84.62;99710.20;1761374;81;20995;-37
2022/05/06 05:12:49;;;;;;;38.47;24.83;;;;;;;13.02;85.21;99704.90;1761630;81;20995;-41
2022/05/06 05:15:15;;;;;;;36.58;25.30;;;;;;;13.17;83.97;99699.17;1761343;81;20999;-39
2022/05/06 05:17:42;;;;;;;38.67;27.27;;;;;;;13.25;83.22;99693.83;1761613;81;21422;-40
2022/05/06 05:20:10;;;;;;;34.10;25.97;;;;;;;13.27;83.28;99698.17;1761581;81;20955;-40
2022/05/06 05:22:38;;;;;;;;;;;;;;;13.36;82.64;99697.17;1763992;81;21011;-39
2022/05/06 05:25:06;;;;;;;41.92;27.25;;;;;;;13.33;82.33;99696.51;1761479;81;20112;-37
2022/05/06 05:27:33;;;;;;;44.30;26.75;;;;;;;13.33;82.93;99696.51;1761351;81;20975;-39
2022/05/06 05:30:00;;;;;;;40.78;27.75;;;;;;;13.39;82.39;99702.28;1761617;81;21015;-38
2022/05/06 05:32:26;;;;;;;36.75;26.27;;;;;;;13.41;82.56;99707.00;1761460;80;21473;-37
2022/05/06 05:34:53;;;;;;;44.40;28.40;;;;;;;13.41;82.96;99708.31;1761671;80;21547;-40
2022/05/06 05:37:19;;;;;;;37.17;26.27;;;;;;;13.42;82.65;99713.13;1761607;80;20983;-38
2022/05/06 05:39:46;;;;;;;41.95;27.82;;;;;;;13.57;81.70;99717.94;1761340;81;20990;-40
2022/05/06 05:42:13;;;;;;;38.50;27.03;;;;;;;13.59;81.86;99713.44;1761441;81;21003;-38
2022/05/06 05:50:08;;;;;;;42.70;28.32;;;;;;;13.73;81.14;99721.34;1761372;81;21468;-39
2022/05/06 05:52:34;;;;;;;37.70;26.40;;;;;;;13.76;81.36;99737.02;1761334;81;21018;-40
2022/05/06 05:55:00;;;;;;;38.78;25.88;;;;;;;13.67;82.12;99733.63;1761366;81;21007;-39
2022/05/06 05:57:25;;;;;;;42.13;26.93;;;;;;;13.78;81.32;99721.91;1761365;81;20978;-41
2022/05/06 05:59:51;;;;;;;38.58;26.75;;;;;;;13.87;80.75;99719.66;1761400;81;20979;-38
2022/05/06 06:02:18;;;;;;;42.67;26.55;;;;;;;13.86;81.27;99723.23;1761424;81;20992;-39
2022/05/06 06:04:44;;;;;;;37.55;24.67;;;;;;;13.91;80.49;99726.45;1761339;81;21480;-42
2022/05/06 06:07:10;;;;;;;36.17;26.57;;;;;;;14.00;80.05;99733.81;1761421;81;20978;-41
2022/05/06 06:09:36;;;;;;;38.50;25.80;;;;;;;14.03;80.03;99738.91;1761468;81;21460;-40
2022/05/06 06:12:02;;;;;;;34.23;25.43;;;;;;;14.00;80.37;99737.77;1761330;81;20967;-38
2022/05/06 06:14:28;;;;;;;42.17;27.98;;;;;;;14.15;79.37;99741.25;1761573;81;20991;-39
2022/05/06 06:16:54;;;;;;;44.15;27.17;;;;;;;14.15;79.30;99747.86;1761398;81;21524;-39
2022/05/06 06:19:20;;;;;;;44.23;27.02;;;;;;;14.16;79.36;99744.28;1761325;81;20979;-39
2022/05/06 06:21:45;;;;;;;55.25;30.10;;;;;;;14.19;78.76;99748.91;1761340;80;20948;-41
2022/05/06 06:24:12;;;;;;;48.50;30.72;;;;;;;14.18;79.12;99749.84;1761345;81;20979;-37
2022/05/06 06:26:38;;;;;;;43.60;27.65;;;;;;;14.13;78.90;99749.27;1761702;80;21810;-40
2022/05/06 06:29:04;;;;;;;41.28;28.42;;;;;;;14.18;78.68;99756.94;1761380;81;20980;-38
2022/05/06 06:31:31;;;;;;;38.33;26.27;;;;;;;14.15;78.68;99755.34;1761362;81;20971;-41
2022/05/06 06:34:01;;;;;;;39.65;26.45;;;;;;;14.16;78.70;99750.41;1761482;81;21528;-40
2022/05/06 06:36:27;;;;;;;34.53;26.35;;;;;;;14.16;78.86;99755.70;1761496;81;20983;-38
2022/05/06 06:38:54;;;;;;;42.23;28.00;;;;;;;14.27;78.28;99763.45;1761582;81;20984;-37
2022/05/06 06:41:20;;;;;;;39.08;26.80;;;;;;;14.15;78.20;99761.95;1761309;81;20971;-38
2022/05/06 06:43:50;;;;;;;45.47;28.53;;;;;;;14.24;77.84;99764.47;1761582;80;21492;-36
2022/05/06 06:46:16;;;;;;;43.33;27.85;;;;;;;14.30;77.60;99771.20;1761387;81;20975;-40
2022/05/06 06:48:43;;;;;;;48.95;28.75;;;;;;;14.34;77.28;99768.73;1761387;80;21015;-39
2022/05/06 06:51:09;;;;;;;48.73;26.67;;;;;;;14.40;76.49;99769.65;1761658;80;21461;-40
2022/05/06 06:53:36;;;;;;;43.13;27.05;;;;;;;14.36;76.69;99765.02;1761576;81;20982;-39
2022/05/06 06:56:02;;;;;;;39.63;26.48;;;;;;;14.44;76.12;99769.82;1761335;81;21503;-40
2022/05/06 06:58:28;;;;;;;43.33;26.02;;;;;;;14.53;75.57;99772.36;1761364;81;20965;-38
2022/05/06 07:00:54;;;;;;;40.98;25.48;;;;;;;14.43;75.67;99765.98;1761340;81;20996;-40
2022/05/06 07:03:20;;;;;;;44.18;27.30;;;;;;;14.34;75.79;99774.02;1761267;81;21039;-36
2022/05/06 07:13:59;;;;;;;45.73;28.40;;;;;;;14.52;75.49;99766.71;1761387;81;21036;-38
2022/05/06 07:16:27;;;;;;;41.15;26.37;;;;;;;14.62;74.81;99770.95;1761317;81;20987;-37
2022/05/06 07:18:53;;;;;;;;;;;;;;;14.74;74.55;99774.14;1764051;80;21515;-38
2022/05/06 07:21:18;;;;;;;37.25;25.50;;;;;;;14.97;73.78;99776.14;1761323;81;20156;-38
2022/05/06 07:23:44;;;;;;;40.03;25.05;;;;;;;14.97;73.78;99776.14;1761348;81;20979;-40
2022/05/06 07:26:12;;;;;;;40.98;25.05;;;;;;;14.89;72.97;99779.75;1761389;81;20984;-39
2022/05/06 07:28:38;;;;;;;41.30;24.80;;;;;;;15.00;72.92;99771.59;1761506;81;20955;-41
2022/05/06 07:31:04;;;;;;;35.68;24.65;;;;;;;14.82;72.47;99778.45;1761440;81;20983;-39
2022/05/06 07:33:30;;;;;;;33.35;22.93;;;;;;;14.91;72.47;99779.17;1761490;81;21015;-37
2022/05/06 07:35:56;;;;;;;38.95;24.37;;;;;;;15.05;71.85;99782.73;1761554;81;20972;-37
2022/05/06 07:38:22;;;;;;;35.52;24.32;;;;;;;15.05;71.80;99784.06;1761793;81;20987;-41
2022/05/06 07:40:48;;;;;;;41.98;23.10;;;;;;;15.20;71.42;99788.32;1761507;81;21455;-39
2022/05/06 07:43:15;;;;;;;33.40;21.62;;;;;;;15.20;70.79;99785.67;1756514;81;21012;-40
2022/05/06 07:45:41;;;;;;;34.30;24.32;;;;;;;15.39;70.61;99785.76;1748120;81;21015;-39
2022/05/06 07:48:09;;;;;;;34.35;24.18;;;;;;;15.26;69.39;99793.69;1748326;82;20980;-38
2022/05/06 07:50:37;;;;;;;31.17;23.62;;;;;;;15.36;69.81;99793.45;1748309;81;20988;-40
2022/05/06 07:53:04;;;;;;;39.20;23.85;;;;;;;15.47;69.43;99793.57;1748087;81;21147;-39
2022/05/06 07:55:30;;;;;;;33.25;21.25;;;;;;;15.43;68.82;99790.77;1748368;81;21520;-38
2022/05/06 07:57:57;;;;;;;32.15;22.82;;;;;;;15.67;68.44;99789.56;1748121;82;20972;-38
2022/05/06 08:00:24;;;;;;;26.33;19.23;;;;;;;15.59;67.83;99790.58;1748207;82;21019;-40
2022/05/06 08:05:40;;;;;;;31.50;20.23;;;;;;;15.67;66.27;99799.33;1748117;82;20963;-36
2022/05/06 08:08:06;;;;;;;31.90;20.52;;;;;;;15.50;66.44;99797.34;1748136;81;20987;-37
2022/05/06 08:10:32;;;;;;;31.07;20.40;;;;;;;15.61;66.28;99795.75;1747670;82;21866;-40
2022/05/06 08:12:58;;;;;;;26.33;19.95;;;;;;;15.60;66.14;99796.72;1748061;81;20964;-40
2022/05/06 08:15:24;;;;;;;29.85;20.57;;;;;;;15.64;65.86;99799.05;1748116;81;20975;-38
2022/05/06 08:17:50;;;;;;;29.10;21.05;;;;;;;15.71;66.22;99794.18;1748183;81;21008;-38
2022/05/06 08:20:16;;;;;;;27.27;19.27;;;;;;;15.62;64.93;99805.42;1748667;81;20988;-37
2022/05/06 08:22:42;;;;;;;27.37;18.82;;;;;;;15.46;64.21;99802.95;1748060;82;20976;-37
2022/05/06 08:25:08;;;;;;;26.45;18.48;;;;;;;15.52;65.07;99794.12;1748233;82;21606;-38
2022/05/06 08:27:40;;;;;;;29.80;21.48;;;;;;;15.72;64.94;99796.73;1748235;81;20996;-36
2022/05/06 08:30:09;;;;;;;21.30;14.23;;;;;;;15.71;63.40;99793.69;1746949;81;20984;-37
2022/05/06 08:32:35;;;;;;;21.00;14.28;;;;;;;15.88;61.84;99794.37;1748073;81;21750;-37
2022/05/06 08:35:03;;;;;;;16.82;13.20;;;;;;;16.10;61.61;99793.74;1748172;81;21004;-38
2022/05/06 08:37:29;;;;;;;20.65;13.08;;;;;;;16.28;60.81;99797.74;1748067;81;20960;-41
2022/05/06 08:39:55;;;;;;;20.37;12.73;;;;;;;16.48;58.71;99790.14;1748052;81;20988;-38
2022/05/06 08:42:22;;;;;;;17.95;13.45;;;;;;;16.45;57.90;99791.71;1748313;81;21465;-39
2022/05/06 08:53:06;;;;;;;18.25;11.40;;;;;;;16.98;55.50;99808.23;1746599;82;21016;-37
2022/05/06 08:55:33;;;;;;;18.10;11.97;;;;;;;17.06;54.61;99804.53;1747354;82;20952;-36
2022/05/06 08:57:59;;;;;;;18.02;11.78;;;;;;;17.17;53.54;99797.09;1747808;82;20960;-37
2022/05/06 09:00:26;;;;;;;19.15;12.55;;;;;;;17.26;54.50;99796.41;1747468;82;21098;-37
2022/05/06 09:02:52;;;;;;;18.00;11.30;;;;;;;17.32;52.01;99797.75;1747623;82;20980;-38
2022/05/06 09:05:20;;;;;;;17.73;10.93;;;;;;;17.56;53.93;99800.34;1747443;82;20979;-39
2022/05/06 09:07:58;;;;;;;21.00;11.63;;;;;;;17.71;52.40;99797.48;1747592;82;20992;-39
2022/05/06 09:10:25;;;;;;;21.93;13.05;;;;;;;17.84;52.65;99792.44;1747378;82;21471;-37
2022/05/06 09:12:56;;;;;;;14.03;10.28;;;;;;;18.06;52.53;99791.27;1747589;82;21414;-40
2022/05/06 09:18:08;;;;;;;16.57;7.72;;;;;;;18.76;50.61;99802.93;1747857;82;20947;-40
2022/05/06 09:20:35;;;;;;;14.40;8.80;;;;;;;19.40;49.34;99811.94;1747828;82;20979;-40
2022/05/06 09:23:29;;;;;;;16.30;9.75;;;;;;;19.73;46.84;99808.27;1747745;82;21528;-39
2022/05/06 09:25:52;;;;;;;15.15;9.28;;;;;;;20.18;46.50;99811.61;1746080;82;21414;-40
2022/05/06 09:28:31;;;;;;;14.70;9.60;;;;;;;20.75;45.37;99820.81;1747570;82;21000;-40
2022/05/06 09:31:01;;;;;;;21.87;11.18;;;;;;;20.77;45.38;99816.17;1747550;82;21522;-40
2022/05/06 09:33:30;;;;;;;16.42;10.53;;;;;;;20.38;44.88;99817.87;1747234;82;21015;-40
2022/05/06 09:35:56;;;;;;;19.37;11.00;;;;;;;20.64;45.53;99809.74;1747182;82;20967;-39
2022/05/06 09:38:29;;;;;;;17.90;10.45;;;;;;;20.86;45.09;99806.48;1747677;82;21139;-39
2022/05/06 09:40:54;;;;;;;17.50;9.80;;;;;;;20.81;45.30;99806.05;1747295;82;20947;-39
2022/05/06 09:43:20;;;;;;;18.62;10.55;;;;;;;21.06;44.72;99812.20;1748516;81;21103;-38
2022/05/06 09:45:46;;;;;;;12.55;9.80;;;;;;;20.75;44.20;99798.59;1753971;81;21015;-40
2022/05/06 09:48:14;;;;;;;15.30;9.95;;;;;;;20.64;44.23;99803.06;1754271;82;20968;-40
2022/05/06 09:50:52;;;;;;;20.45;11.43;;;;;;;20.54;44.00;99795.50;1753902;82;21027;-41
2022/05/06 09:53:19;;;;;;;16.30;10.38;;;;;;;20.47;44.31;99794.35;1752054;82;20952;-40
2022/05/06 09:55:46;;;;;;;15.50;9.55;;;;;;;20.42;43.66;99799.25;1754005;82;20971;-40
2022/05/06 09:58:15;;;;;;;16.23;8.80;;;;;;;20.21;43.30;99793.50;1754062;82;21031;-40
2022/05/06 10:00:41;;;;;;;18.40;9.55;;;;;;;20.22;43.14;99804.52;1746698;80;20983;-41
2022/05/06 10:03:12;;;;;;;13.05;8.75;;;;;;;20.39;42.29;99796.84;1753645;81;20995;-41
2022/05/06 10:05:38;;;;;;;18.52;9.25;;;;;;;21.19;41.81;99802.59;1753692;81;21878;-41
2022/05/06 10:08:19;;;;;;;17.20;9.48;;;;;;;21.73;42.07;99800.30;1753775;81;20991;-39
2022/05/06 10:10:59;;;;;;;23.73;9.40;;;;;;;22.56;41.76;99795.58;1753667;81;20983;-40
2022/05/06 10:13:32;;;;;;;12.20;7.87;;;;;;;22.57;38.72;99787.37;1753650;81;21483;-39
2022/05/06 10:15:58;;;;;;;12.35;7.67;;;;;;;22.71;38.93;99795.91;1753655;81;20987;-40
2022/05/06 10:18:34;;;;;;;16.03;9.30;;;;;;;22.51;38.09;99796.02;1753929;82;21019;-40
2022/05/06 10:21:05;;;;;;;21.73;8.33;;;;;;;22.23;38.71;99801.84;1753960;80;21007;-40
2022/05/06 10:23:52;;;;;;;14.68;8.73;;;;;;;22.14;38.54;99799.55;1752753;81;20960;-39
2022/05/06 10:26:43;;;;;;;9.90;6.53;;;;;;;22.04;38.81;99804.92;1753650;82;21019;-44
2022/05/06 10:32:50;;;;;;;6.92;3.60;;;;;;;22.24;36.26;99804.86;1748538;80;20998;-40
2022/05/06 10:35:17;;;;;;;5.15;2.65;;;;;;;22.87;34.78;99808.16;1713499;84;21525;-39
2022/05/06 10:37:49;;;;;;;11.10;3.55;;;;;;;23.86;33.48;99811.22;1713692;84;21001;-39
2022/05/06 10:40:28;;;;;;;12.73;3.62;;;;;;;24.38;33.24;99813.03;1711529;84;21105;-40
2022/05/06 10:42:54;;;;;;;9.90;4.20;;;;;;;24.40;31.73;99810.18;1713436;84;21441;-40
2022/05/06 10:45:30;;;;;;;14.50;4.50;;;;;;;25.08;32.75;99810.05;1706894;83;21022;-40
2022/05/06 10:47:57;;;;;;;7.37;3.17;;;;;;;25.43;32.65;99808.11;1706019;84;21008;-40
2022/05/06 10:50:25;;;;;;;4.67;3.00;;;;;;;25.44;29.42;99806.25;1706064;84;21042;-40
2022/05/06 10:52:52;;;;;;;4.72;3.27;;;;;;;24.58;29.10;99807.43;1705859;84;21013;-41
2022/05/06 10:55:20;;;;;;;4.58;3.17;;;;;;;25.07;30.28;99796.78;1706000;84;20998;-40
2022/05/06 10:57:59;;;;;;;5.85;2.72;;;;;;;24.78;29.42;99792.69;1705957;84;20989;-41
2022/05/06 11:00:28;;;;;;;5.60;2.77;;;;;;;24.56;29.17;99794.63;1704966;83;20997;-40
2022/05/06 11:02:55;;;;;;;8.43;2.90;;;;;;;25.07;29.40;99793.58;1705896;84;21038;-40
2022/05/06 11:05:24;;;;;;;3.77;2.67;;;;;;;25.23;28.21;99787.37;1713354;82;21012;-40
2022/05/06 11:07:54;;;;;;;8.68;2.95;;;;;;;26.08;28.90;99774.52;1754409;80;20997;-39
2022/05/06 11:10:23;;;;;;;5.35;2.17;;;;;;;26.81;28.31;99780.95;1782301;80;20970;-39
2022/05/06 11:12:52;;;;;;;7.42;2.52;;;;;;;27.27;26.06;99790.08;1784394;79;20954;-41
2022/05/06 11:15:21;;;;;;;6.70;2.37;;;;;;;27.22;25.95;99781.68;1784475;80;20943;-41
2022/05/06 11:17:49;;;;;;;3.37;2.10;;;;;;;27.18;25.53;99776.62;1784402;80;21021;-41
2022/05/06 11:20:29;;;;;;;5.97;2.30;;;;;;;27.44;25.92;99769.20;1784442;80;21003;-41
2022/05/06 11:23:11;;;;;;;3.65;2.50;;;;;;;27.86;25.65;99763.19;1784436;80;21033;-40
2022/05/06 12:06:50;;;;;;;4.93;2.40;;;;;;;32.13;17.15;99765.02;1794538;76;62239;-62
2022/05/06 12:09:21;;;;;;;6.77;2.87;;;;;;;31.80;17.96;99769.14;1763179;80;21620;-63
2022/05/06 12:11:50;;;;;;;5.45;2.17;;;;;;;30.35;18.28;99762.23;1760763;81;21343;-63
2022/05/06 12:14:21;;;;;;;7.25;2.55;;;;;;;31.52;18.27;99767.50;1750855;80;21054;-64
2022/05/06 12:16:56;;;;;;;5.62;2.70;;;;;;;30.57;17.66;99770.25;1743328;81;21045;-66
2022/05/06 12:19:42;;;;;;;5.97;2.50;;;;;;;30.90;18.22;99770.32;1759824;80;21030;-64
2022/05/06 12:22:14;;;;;;;7.43;2.17;;;;;;;30.14;19.22;99763.13;1732217;80;21042;-62
2022/05/06 12:24:46;;;;;;;7.45;2.17;;;;;;;30.60;18.85;99760.34;1753844;81;21191;-64
2022/05/06 12:27:15;;;;;;;4.53;1.95;;;;;;;31.27;17.76;99766.77;1763118;80;21032;-63
2022/05/06 12:29:42;;;;;;;6.28;2.10;;;;;;;31.93;17.08;99755.00;1746444;80;21022;-63
2022/05/06 12:32:08;;;;;;;9.55;2.55;;;;;;;31.91;16.70;99761.18;1752497;80;21015;-63
2022/05/06 12:34:34;;;;;;;;;;;;;;;32.30;15.92;99750.41;1759446;81;21065;-63
2022/05/06 12:37:15;;;;;;;2.83;1.85;;;;;;;31.91;14.30;99754.38;1739979;81;20555;-65
2022/05/06 12:39:48;;;;;;;9.75;2.27;;;;;;;32.46;15.54;99761.33;1753315;80;21018;-65
2022/05/06 12:42:21;;;;;;;7.12;2.15;;;;;;;32.10;15.26;99758.11;1758283;79;21013;-63
2022/05/06 12:44:48;;;;;;;5.37;2.00;;;;;;;32.19;14.81;99738.84;1759817;79;21464;-64
2022/05/06 12:50:09;;;;;;;14.25;3.20;;;;;;;31.89;15.12;99733.36;1764366;79;21015;-63
2022/05/06 12:52:36;;;;;;;6.95;2.22;;;;;;;30.83;16.25;99735.53;1763597;80;21153;-63
2022/05/06 12:55:04;;;;;;;5.65;2.50;;;;;;;29.52;17.07;99742.30;1757866;79;21705;-64
2022/05/06 12:57:30;;;;;;;7.87;2.37;;;;;;;28.37;18.08;99742.16;1755873;80;21084;-64
2022/05/06 12:59:57;;;;;;;4.93;2.30;;;;;;;27.88;18.31;99744.92;1758905;80;20991;-64
2022/05/06 13:02:23;;;;;;;8.20;2.60;;;;;;;27.15;18.76;99754.56;1760485;80;21003;-63
2022/05/06 13:04:49;;;;;;;9.95;2.50;;;;;;;26.31;19.80;99740.91;1765415;80;21018;-62
2022/05/06 13:07:15;;;;;;;6.37;2.35;;;;;;;26.11;20.01;99733.75;1755292;80;21195;-64
2022/05/06 13:09:42;;;;;;;6.92;2.37;;;;;;;25.99;20.08;99732.76;1763700;80;21527;-62
2022/05/06 13:12:09;;;;;;;5.17;2.60;;;;;;;25.96;20.02;99730.44;1758569;79;20993;-62
2022/05/06 13:14:35;;;;;;;3.85;2.60;;;;;;;25.32;20.82;99732.21;1766147;80;20993;-63
2022/05/06 13:17:01;;;;;;;5.20;2.47;;;;;;;25.09;21.24;99736.91;1760510;80;21581;-62
2022/05/06 13:19:29;;;;;;;8.98;2.50;;;;;;;24.82;21.46;99729.99;1764076;80;21163;-61
2022/05/06 13:21:56;;;;;;;7.83;2.83;;;;;;;24.49;22.17;99723.18;1760508;80;21111;-62
2022/05/06 13:24:23;;;;;;;13.45;2.67;;;;;;;24.48;22.26;99715.59;1759292;81;21022;-61
2022/05/06 13:26:49;;;;;;;7.92;2.52;;;;;;;24.12;22.50;99717.19;1754262;80;21049;-63
2022/05/06 13:29:15;;;;;;;4.47;2.67;;;;;;;24.15;22.19;99718.19;1751048;81;21055;-61
2022/05/06 13:31:41;;;;;;;4.55;2.55;;;;;;;23.92;22.68;99719.28;1752900;80;21090;-61
2022/05/06 13:34:07;;;;;;;8.93;2.77;;;;;;;24.01;23.17;99712.08;1751611;80;21038;-61
2022/05/06 13:36:34;;;;;;;5.65;2.55;;;;;;;23.88;23.40;99719.75;1755426;81;21050;-61
2022/05/06 13:39:00;;;;;;;6.80;2.52;;;;;;;23.77;23.39;99715.47;1753301;79;21002;-61
2022/05/06 13:41:27;;;;;;;11.53;2.70;;;;;;;23.88;23.29;99717.06;1749810;80;21015;-62
2022/05/06 13:43:54;;;;;;;4.30;2.58;;;;;;;23.77;23.10;99718.15;1760026;81;21030;-60
2022/05/06 13:46:21;;;;;;;5.87;2.45;;;;;;;23.32;23.21;99716.52;1755894;80;21089;-61
2022/05/06 13:48:48;;;;;;;30.45;3.62;;;;;;;23.24;23.42;99711.11;1759640;80;21038;-61
2022/05/06 13:51:14;;;;;;;22.80;3.35;;;;;;;22.94;24.05;99718.05;1751990;80;20998;-63
2022/05/06 13:53:40;;;;;;;7.87;2.52;;;;;;;22.64;24.12;99721.95;1746666;80;21006;-62
2022/05/06 13:59:11;;;;;;;14.73;3.40;;;;;;;22.50;24.12;99723.80;1759220;80;21062;-62
2022/05/06 14:01:36;;;;;;;6.75;2.50;;;;;;;22.59;24.06;99718.40;1754676;80;20995;-62
2022/05/06 14:04:04;;;;;;;7.42;2.67;;;;;;;22.55;24.30;99718.84;1757740;81;21018;-62
2022/05/06 14:06:31;;;;;;;8.03;2.37;;;;;;;22.64;24.08;99726.47;1759872;80;21006;-67
2022/05/06 14:08:58;;;;;;;4.35;2.20;;;;;;;22.62;23.67;99722.59;1744552;80;21019;-69
2022/05/06 14:11:26;;;;;;;4.00;2.10;;;;;;;22.43;23.68;99713.70;1741594;80;21555;-68
2022/05/06 14:13:54;;;;;;;9.80;2.58;;;;;;;22.45;23.80;99718.91;1757207;80;21022;-70
2022/05/06 14:16:21;;;;;;;7.15;2.30;;;;;;;22.34;23.95;99721.78;1747405;80;21014;-67
2022/05/06 14:18:47;;;;;;;;;;;;;;;22.34;23.93;99713.27;1743095;80;21022;-63
2022/05/06 14:21:12;;;;;;;6.90;2.12;;;;;;;22.18;24.39;99708.52;1760612;80;20122;-63
2022/05/06 14:23:38;;;;;;;4.67;2.02;;;;;;;22.21;24.20;99712.25;1757115;81;21544;-63
2022/05/06 14:26:04;;;;;;;8.20;2.40;;;;;;;22.16;24.23;99701.14;1750787;80;21003;-62
2022/05/06 14:28:30;;;;;;;6.67;2.30;;;;;;;22.15;24.20;99706.64;1752764;81;21058;-63
2022/05/06 14:30:56;;;;;;;6.72;2.30;;;;;;;22.15;24.28;99716.84;1750934;80;21043;-62
2022/05/06 14:33:21;;;;;;;11.00;2.60;;;;;;;21.82;25.13;99712.42;1744315;81;21046;-63
2022/05/06 14:35:47;;;;;;;7.95;2.47;;;;;;;21.98;25.24;99724.34;1749150;80;21029;-62
2022/05/06 14:38:13;;;;;;;11.73;2.37;;;;;;;21.87;25.84;99717.85;1746512;81;21018;-62
2022/05/06 14:40:39;;;;;;;9.88;2.70;;;;;;;21.38;26.61;99718.80;1747446;80;21003;-61
2022/05/06 14:43:06;;;;;;;6.90;2.60;;;;;;;21.21;27.31;99712.83;1751084;79;21007;-61
2022/05/06 14:45:35;;;;;;;7.50;2.35;;;;;;;20.92;27.87;99708.84;1755131;80;20995;-61
2022/05/06 14:48:00;;;;;;;10.23;2.70;;;;;;;21.12;27.19;99711.01;1749654;80;21072;-62
2022/05/06 14:50:26;;;;;;;6.92;2.22;;;;;;;21.21;26.89;99713.70;1758195;80;21492;-62
2022/05/06 14:52:52;;;;;;;4.60;2.37;;;;;;;21.16;26.90;99712.44;1742880;81;21606;-62
2022/05/06 14:55:18;;;;;;;7.42;2.22;;;;;;;21.03;26.73;99707.38;1748743;80;21038;-62
2022/05/06 14:57:47;;;;;;;5.15;1.82;;;;;;;21.07;26.49;99709.61;1749751;80;21110;-62
2022/05/06 15:00:14;;;;;;;9.20;2.40;;;;;;;21.19;25.95;99717.01;1760344;79;21013;-63
2022/05/06 15:02:41;;;;;;;3.70;1.70;;;;;;;21.11;25.39;99720.88;1743675;80;21579;-61
2022/05/06 15:05:08;;;;;;;5.12;1.80;;;;;;;21.07;25.14;99713.63;1743003;81;21183;-62
2022/05/06 15:07:34;;;;;;;4.08;1.70;;;;;;;21.01;25.15;99703.52;1755693;80;21045;-62
2022/05/06 15:10:00;;;;;;;4.47;1.95;;;;;;;21.03;24.71;99702.88;1758088;81;20999;-62
2022/05/06 15:12:26;;;;;;;6.30;2.00;;;;;;;20.87;24.89;99699.92;1749060;80;21079;-61
2022/05/06 15:14:52;;;;;;;8.03;2.40;;;;;;;20.71;24.44;99698.64;1753316;81;21062;-61
2022/05/06 15:17:18;;;;;;;11.60;1.98;;;;;;;20.63;23.67;99708.33;1741673;80;21038;-61
2022/05/06 15:19:46;;;;;;;6.53;2.08;;;;;;;20.61;23.81;99695.14;1753972;80;21018;-60
2022/05/06 15:22:14;;;;;;;4.67;2.05;;;;;;;20.65;23.79;99695.70;1756315;81;21003;-62
2022/05/06 15:24:40;;;;;;;4.35;1.70;;;;;;;20.37;23.70;99697.31;1747772;81;21527;-61
2022/05/06 15:27:06;;;;;;;6.47;2.05;;;;;;;20.34;23.57;99694.44;1752571;79;21001;-61
2022/05/06 15:29:33;;;;;;;7.22;1.75;;;;;;;20.37;23.94;99702.66;1753038;81;21011;-61
2022/05/06 15:32:00;;;;;;;15.60;2.33;;;;;;;20.33;23.67;99703.42;1756665;80;20986;-61